Flying Club and Community

Welcome to Pacific Coast Flyers

Welcome to the online home of Pacific Coast Flyers. We are the #1 flying club in San Diego County, operating out of several airports in the San Diego area. It is our mission to provide a safe positive flying experience as well as excellent value for our members.

Pacific Coast Flyers - North County Flying Club

At Pacific Coast Flyers we provide much more than just aircraft rental. With safety events, club parties and barbecues, fly-in events and much more, you’ll see why we prefer to be called an aviation community instead of just your average “flying club”!

Pacific Coast Flyers - North County Flying Club

  • 24/7 Fleet Access
  • Well Equipped Fleet
  • Online Maint Records
  • Online Scheduling
  • Online Payments
  • Low Monthly Dues
  • No Block Deposits
  • Low Wet Rates
  • Diverse Fleet
  • Large Training Library

Local METARs

Palomar - KCRQ
2014/04/23 06:53 KCRQ 230653Z AUTO 00000KT 10SM CLR 14/10 A2995 RMK AO2 SLP138 T01440100 TSNO

Oceanside - KOKB
2014/04/23 06:52 KOKB 230652Z AUTO 00000KT 9SM CLR 11/09 A2994 RMK AO2 SLP138 T01110089

Ramona - KRNM
2014/04/23 06:53 KRNM 230653Z 06003KT 10SM CLR 10/07 A2996 RMK AO2 SLP136 T01000072

Montgomery - KMYF
2014/04/23 06:53 KMYF 230653Z AUTO 17004KT 10SM CLR 14/10 A2996 RMK AO2 SLP141 T01440100 TSNO

Gillespie - KSEE
2014/04/23 07:15 KSEE 230715Z AUTO 13004KT 10SM CLR 14/09 A2998 RMK AO2

Brown - KSDM
2014/04/23 06:53 KSDM 230653Z AUTO 21003KT 10SM CLR 13/09 A2996 RMK AO2 SLP141 T01280089

PCF Weather Station

 

 none
Featured Aircraft

N6051Q - 1965 Mooney M20

Location: MC CLELLAN-PALOMAR
Equipment: DME, GPS, WAAS, Marker Beacon, TCAS, Glass Cockpit, 4-place intercom
Information: Aspen PFD/MFD

N4181Y - 1977 Bellanca 7ECA

Location: OCEANSIDE MUNI
Equipment: 2-place intercom
Information: G-Meter

N2140T - 1971 Piper PA-28

Location: MC CLELLAN-PALOMAR
Equipment: DME, GPS, WAAS, Marker Beacon, Glass Cockpit, 4-place intercom
Information: Aspen PFD1000, Gar...

N8595M - 1962 Beech D95A

Location: MC CLELLAN-PALOMAR
Equipment: GPS, WAAS, Auto Pilot, Marker Beacon, HSI, TCAS, Glass Cockpit, 4-place intercom
Information: Great avionics and...

See our Entire Fleet

Instructor Spotlight

85659
Jeffrey White
Educator with 30 years flight experience. Patient and knowledgeable approa...

Learn to fly with Pacific Coast Flyers

Contact Pacific Coast Flyers TODAY and get started flying with the #1 flying club in San Diego.
Call 877-PC-FLYER (877-723-5937) or click HERE.

Exclusive Promotion from AirPooler